Time;durP1;ratioP1;P1;durP2;ratioP2;P2;SDS_P1;SDS_P2;PMS_P1;PMS_P2;Temp;Humidity;BMP_temperature;BMP_pressure;BME280_temperature;BME280_humidity;BME280_pressure;Samples;Min_cycle;Max_cycle;Signal;HPM_P1;HPM_P2
2022/06/08 00:00:15;;;;;;;3.47;2.15;;;;;;;17.26;60.23;100335.22;5008817;28;20115;-80
2022/06/08 00:02:46;;;;;;;2.75;1.90;;;;;;;17.27;59.95;100332.41;4998215;28;20049;-79
2022/06/08 00:05:13;;;;;;;3.10;1.90;;;;;;;17.28;60.17;100333.25;4995123;28;20055;-81
2022/06/08 00:07:40;;;;;;;5.20;2.42;;;;;;;17.28;59.98;100333.25;5011756;28;20152;-79
2022/06/08 00:10:09;;;;;;;3.47;2.17;;;;;;;17.29;60.35;100326.94;5012841;28;20040;-79
2022/06/08 00:12:36;;;;;;;5.70;2.45;;;;;;;17.28;60.51;100328.75;4996251;28;20053;-80
2022/06/08 00:15:06;;;;;;;3.22;2.00;;;;;;;17.28;60.60;100322.59;5019656;28;20069;-79
2022/06/08 00:17:33;;;;;;;4.60;2.50;;;;;;;17.28;61.45;100325.25;5028772;28;20049;-79
2022/06/08 00:20:01;;;;;;;3.38;2.17;;;;;;;17.25;61.00;100323.75;5011635;28;20053;-81
2022/06/08 00:22:29;;;;;;;8.70;2.53;;;;;;;17.26;61.37;100327.25;5017647;28;20123;-80
2022/06/08 00:24:58;;;;;;;4.35;2.20;;;;;;;17.25;61.26;100320.25;5026469;28;20491;-79
2022/06/08 00:27:26;;;;;;;3.60;2.03;;;;;;;17.24;61.17;100322.03;5026836;28;20063;-79
2022/06/08 00:29:53;;;;;;;6.13;2.47;;;;;;;17.27;61.09;100328.91;4992153;28;20049;-79
2022/06/08 00:32:20;;;;;;;4.95;2.65;;;;;;;17.28;60.69;100327.94;5003995;28;20052;-79
2022/06/08 00:34:48;;;;;;;9.68;2.78;;;;;;;17.29;60.17;100329.59;5025153;28;20056;-79
2022/06/08 00:37:15;;;;;;;5.70;2.45;;;;;;;17.32;59.55;100316.84;4996174;28;20049;-80
2022/06/08 00:39:42;;;;;;;4.72;2.92;;;;;;;17.36;59.29;100322.75;5000048;28;20667;-82
2022/06/08 00:42:11;;;;;;;3.60;2.20;;;;;;;17.35;60.45;100321.91;5012770;28;20056;-81
2022/06/08 00:44:44;;;;;;;4.72;2.78;;;;;;;17.33;60.19;100325.69;5010660;28;20057;-80
2022/06/08 00:47:19;;;;;;;6.10;2.15;;;;;;;17.33;60.00;100325.69;4998535;28;20407;-80
2022/06/08 00:49:58;;;;;;;6.93;2.22;;;;;;;17.33;60.16;100325.69;5027349;28;20059;-82
2022/06/08 00:52:27;;;;;;;2.80;2.05;;;;;;;17.32;60.13;100321.34;5014503;28;20099;-78
2022/06/08 00:54:59;;;;;;;4.13;2.20;;;;;;;17.28;60.40;100320.78;5012149;28;20261;-80
2022/06/08 00:57:32;;;;;;;4.60;2.60;;;;;;;17.25;60.53;100322.91;5046064;28;20079;-80
2022/06/08 01:00:13;;;;;;;5.18;2.75;;;;;;;17.21;60.30;100315.19;5006026;28;20555;-80
2022/06/08 01:02:42;;;;;;;4.40;2.67;;;;;;;17.18;60.99;100312.81;5032295;28;20135;-80
2022/06/08 01:05:21;;;;;;;4.75;2.55;;;;;;;17.12;60.82;100315.19;4982429;28;20296;-80
2022/06/08 01:07:52;;;;;;;3.92;2.33;;;;;;;17.11;60.87;100316.16;4998219;28;20043;-79
2022/06/08 01:10:22;;;;;;;5.45;2.50;;;;;;;17.10;61.51;100320.63;4994462;28;20049;-80
2022/06/08 01:12:50;;;;;;;8.50;2.30;;;;;;;17.06;61.19;100316.56;5006333;28;20080;-79
2022/06/08 01:15:21;;;;;;;4.72;2.38;;;;;;;17.03;61.16;100314.22;5014981;28;20044;-80
2022/06/08 01:17:48;;;;;;;3.47;2.40;;;;;;;16.98;61.62;100305.81;5034890;28;20111;-80
2022/06/08 01:20:16;;;;;;;4.53;2.42;;;;;;;16.95;61.58;100303.44;5023284;28;20633;-79
2022/06/08 01:22:43;;;;;;;6.18;2.70;;;;;;;16.90;62.01;100298.53;4994220;28;20053;-79
2022/06/08 01:25:12;;;;;;;5.22;2.67;;;;;;;16.90;61.80;100311.00;5026876;28;20057;-81
2022/06/08 01:27:43;;;;;;;5.53;2.30;;;;;;;16.83;62.75;100312.50;5009062;28;20050;-80
2022/06/08 01:30:10;;;;;;;5.82;2.40;;;;;;;16.80;62.54;100302.16;5022636;28;20341;-81
2022/06/08 01:32:47;;;;;;;3.05;2.38;;;;;;;16.76;62.53;100306.91;5009042;28;20072;-79
2022/06/08 01:35:33;;;;;;;8.65;2.90;;;;;;;16.70;62.46;100302.94;5024941;28;20123;-79
2022/06/08 01:38:09;;;;;;;4.13;2.42;;;;;;;16.65;63.36;100301.69;5030799;28;20117;-79
2022/06/08 01:40:42;;;;;;;4.25;2.45;;;;;;;16.59;63.90;100304.91;5009237;28;20072;-77
2022/06/08 01:43:13;;;;;;;7.32;2.65;;;;;;;16.52;64.30;100301.09;5050814;28;20045;-79
2022/06/08 01:45:53;;;;;;;4.03;2.22;;;;;;;16.47;65.16;100298.84;5013801;28;20103;-79
2022/06/08 01:48:48;;;;;;;4.15;2.70;;;;;;;16.41;65.27;100296.75;5043057;28;20049;-78
2022/06/08 01:51:21;;;;;;;5.20;2.97;;;;;;;16.38;65.16;100294.34;5033002;28;20070;-79
2022/06/08 01:53:58;;;;;;;4.47;2.65;;;;;;;16.35;65.26;100295.47;5012860;28;20045;-79
2022/06/08 01:56:40;;;;;;;5.07;2.60;;;;;;;16.30;65.70;100288.84;5037303;28;20049;-79
2022/06/08 01:59:44;;;;;;;5.32;2.67;;;;;;;16.27;65.88;100286.50;5027784;28;21635;-79
2022/06/08 02:02:30;;;;;;;5.88;3.15;;;;;;;16.23;65.87;100295.72;4993532;28;20129;-78
2022/06/08 02:05:10;;;;;;;6.03;2.90;;;;;;;16.16;66.29;100284.75;4991232;28;20055;-78
2022/06/08 02:07:45;;;;;;;16.75;10.57;;;;;;;16.12;67.46;100286.88;5015114;28;20045;-79
2022/06/08 02:10:20;;;;;;;15.52;10.50;;;;;;;16.08;67.16;100292.59;5000388;28;20056;-80
2022/06/08 02:12:53;;;;;;;23.52;12.80;;;;;;;16.05;67.74;100292.84;5029433;28;20049;-80
2022/06/08 02:15:31;;;;;;;16.40;9.95;;;;;;;15.99;67.82;100291.56;5023519;28;20037;-81
2022/06/08 02:18:00;;;;;;;11.63;7.35;;;;;;;15.94;67.89;100294.63;4995612;28;20069;-78
2022/06/08 02:20:27;;;;;;;7.75;4.68;;;;;;;15.93;67.78;100292.91;5014427;28;20041;-78
2022/06/08 02:23:15;;;;;;;6.90;4.95;;;;;;;15.92;67.73;100296.56;5044846;28;20041;-80
2022/06/08 02:25:50;;;;;;;11.75;7.18;;;;;;;15.93;69.29;100292.91;5014440;28;20052;-79
2022/06/08 02:28:39;;;;;;;8.38;4.95;;;;;;;15.90;68.21;100289.72;5001306;28;20461;-78
2022/06/08 02:31:12;;;;;;;5.82;3.80;;;;;;;15.87;68.09;100298.78;5025229;28;20037;-78
2022/06/08 02:36:32;;;;;;;5.20;3.10;;;;;;;15.86;67.75;100297.09;5021030;28;20057;-79
2022/06/08 02:39:14;;;;;;;8.02;3.03;;;;;;;15.90;67.70;100295.84;5033936;28;20041;-78
2022/06/08 02:41:43;;;;;;;6.03;3.30;;;;;;;15.94;68.30;100299.09;5020207;28;20403;-80
2022/06/08 02:44:18;;;;;;;7.13;3.72;;;;;;;15.95;67.87;100293.66;5012549;28;20563;-79
2022/06/08 02:47:20;;;;;;;6.38;3.88;;;;;;;16.01;68.04;100297.56;5018567;28;20056;-79
2022/06/08 02:49:47;;;;;;;5.18;3.75;;;;;;;16.05;67.91;100301.66;5012556;28;20604;-79
2022/06/08 02:52:19;;;;;;;4.60;3.47;;;;;;;16.07;69.14;100302.34;5030633;28;20044;-81
2022/06/08 02:54:48;;;;;;;6.57;3.78;;;;;;;16.11;68.90;100300.25;5027997;28;20508;-80
2022/06/08 02:57:18;;;;;;;9.00;4.72;;;;;;;16.16;68.77;100300.69;4996741;28;20048;-80
2022/06/08 02:59:59;;;;;;;7.63;4.55;;;;;;;16.23;68.59;100293.88;5012767;28;20059;-80
2022/06/08 03:02:32;;;;;;;8.55;4.88;;;;;;;16.25;68.89;100299.06;5003116;28;20059;-79
2022/06/08 03:05:10;;;;;;;7.50;4.95;;;;;;;16.29;68.54;100296.00;5009932;28;20120;-79
2022/06/08 03:07:41;;;;;;;7.35;4.18;;;;;;;16.31;67.97;100295.88;4998296;28;20049;-79
2022/06/08 03:10:10;;;;;;;7.88;4.22;;;;;;;16.31;68.02;100293.22;5013440;28;20491;-81
2022/06/08 03:12:40;;;;;;;7.53;4.03;;;;;;;16.32;67.88;100290.41;5015694;28;20507;-78
2022/06/08 03:15:09;;;;;;;7.70;3.95;;;;;;;16.33;67.62;100291.25;5011034;28;20056;-78
2022/06/08 03:17:38;;;;;;;7.15;4.00;;;;;;;16.33;68.06;100284.13;4996743;28;20045;-79
2022/06/08 03:20:08;;;;;;;7.05;4.15;;;;;;;16.35;68.19;100292.81;5024513;28;20041;-79
2022/06/08 03:22:36;;;;;;;11.65;4.65;;;;;;;16.38;68.49;100294.34;5011886;28;20136;-79
2022/06/08 03:25:05;;;;;;;7.20;4.22;;;;;;;16.38;68.19;100292.53;5046687;28;20073;-79
2022/06/08 03:27:33;;;;;;;7.30;3.88;;;;;;;16.40;68.16;100297.72;4996795;28;20053;-80
2022/06/08 03:30:00;;;;;;;6.10;4.10;;;;;;;16.43;67.80;100290.28;4984092;28;20303;-78
2022/06/08 03:32:27;;;;;;;7.18;4.32;;;;;;;16.48;67.80;100295.22;5010204;28;20522;-79
2022/06/08 03:34:54;;;;;;;7.25;4.03;;;;;;;16.53;67.61;100295.66;5027843;28;20049;-78
2022/06/08 03:37:22;;;;;;;7.20;3.63;;;;;;;16.52;68.67;100291.28;4998058;28;20060;-78
2022/06/08 03:39:49;;;;;;;5.43;3.08;;;;;;;16.55;67.68;100291.03;5025951;28;20057;-79
2022/06/08 03:42:18;;;;;;;5.97;3.72;;;;;;;16.60;66.72;100291.47;5006543;28;20459;-79
2022/06/08 03:44:45;;;;;;;5.07;3.38;;;;;;;16.66;66.39;100296.25;5027600;28;20083;-79
2022/06/08 03:47:17;;;;;;;7.05;3.22;;;;;;;16.74;65.94;100297.38;4996434;28;20049;-79
2022/06/08 03:49:44;;;;;;;6.93;3.03;;;;;;;16.81;65.75;100301.19;5009326;28;20041;-80
2022/06/08 03:52:15;;;;;;;6.28;3.33;;;;;;;16.87;65.73;100297.97;5012794;28;20053;-78
2022/06/08 03:54:46;;;;;;;5.05;3.00;;;;;;;16.90;65.10;100301.19;5012943;28;20056;-79
2022/06/08 03:57:14;;;;;;;7.60;3.47;;;;;;;16.99;64.77;100296.03;4992012;28;20069;-78
2022/06/08 03:59:45;;;;;;;5.32;2.90;;;;;;;17.05;64.15;100288.31;5010860;28;20045;-80
2022/06/08 04:02:12;;;;;;;6.40;3.35;;;;;;;17.11;64.32;100293.09;5008144;28;20068;-79
2022/06/08 04:04:40;;;;;;;8.27;3.88;;;;;;;17.14;63.81;100298.09;5027063;28;20065;-80
2022/06/08 04:07:08;;;;;;;6.20;4.30;;;;;;;17.19;63.68;100292.38;5011364;28;20109;-80
2022/06/08 04:09:37;;;;;;;5.40;3.40;;;;;;;17.24;63.51;100297.25;5031623;28;20162;-79
2022/06/08 04:12:05;;;;;;;7.45;3.33;;;;;;;17.27;63.75;100289.00;5034544;28;20532;-80
2022/06/08 04:14:32;;;;;;;7.05;3.45;;;;;;;17.29;63.90;100284.38;5025299;28;20067;-80
2022/06/08 04:17:01;;;;;;;6.65;3.22;;;;;;;17.33;63.64;100291.09;5023758;28;20046;-79
2022/06/08 04:19:29;;;;;;;6.22;3.13;;;;;;;17.37;63.36;100290.66;4992471;28;20048;-78
2022/06/08 04:21:56;;;;;;;6.47;3.38;;;;;;;17.40;63.25;100285.06;4991879;28;20733;-80
2022/06/08 04:24:23;;;;;;;5.28;3.13;;;;;;;17.44;63.22;100290.94;5043982;28;20153;-78
2022/06/08 04:26:51;;;;;;;4.78;3.47;;;;;;;17.44;62.21;100290.94;5010501;28;20048;-79
2022/06/08 04:29:19;;;;;;;4.90;2.72;;;;;;;17.46;62.89;100294.28;5042144;28;20071;-79
2022/06/08 04:31:46;;;;;;;4.38;3.50;;;;;;;17.45;62.56;100289.97;5023126;28;20183;-80
2022/06/08 04:34:14;;;;;;;4.57;3.30;;;;;;;17.44;62.49;100288.28;4995210;28;20061;-80
2022/06/08 04:36:42;;;;;;;7.35;3.13;;;;;;;17.42;62.85;100285.75;5009130;28;20044;-79
2022/06/08 04:39:13;;;;;;;7.00;3.45;;;;;;;17.46;62.10;100286.31;5009556;28;20320;-78
2022/06/08 04:41:40;;;;;;;6.45;2.97;;;;;;;17.56;61.83;100278.28;5007973;28;20091;-81
2022/06/08 04:44:07;;;;;;;6.32;3.53;;;;;;;17.64;60.94;100279.25;5027515;28;20049;-80
2022/06/08 04:46:35;;;;;;;5.07;3.17;;;;;;;17.79;60.62;100273.53;5007967;28;20075;-80
2022/06/08 04:49:03;;;;;;;5.03;3.00;;;;;;;17.93;60.00;100278.38;5026086;28;20052;-80
2022/06/08 04:51:30;;;;;;;9.80;3.20;;;;;;;18.09;59.19;100285.72;5004079;28;20471;-80
2022/06/08 04:53:58;;;;;;;5.20;2.83;;;;;;;18.20;59.19;100288.22;5026614;28;20122;-80
2022/06/08 04:56:27;;;;;;;7.97;2.75;;;;;;;18.18;58.33;100285.69;5022322;28;20041;-79
2022/06/08 04:58:54;;;;;;;3.90;2.70;;;;;;;18.22;58.44;100278.22;5011329;28;20488;-80
2022/06/08 05:01:22;;;;;;;3.95;2.80;;;;;;;18.22;58.39;100276.41;5022657;28;20049;-80
2022/06/08 05:03:50;;;;;;;3.97;3.03;;;;;;;18.22;58.40;100280.91;5009027;28;20468;-78
2022/06/08 05:06:18;;;;;;;4.82;2.88;;;;;;;18.22;58.51;100279.06;5007652;28;20041;-78
2022/06/08 05:08:45;;;;;;;7.93;3.17;;;;;;;18.29;58.73;100279.34;5001616;28;20063;-81
2022/06/08 05:11:19;;;;;;;6.10;3.45;;;;;;;18.33;59.02;100274.56;5046288;28;20064;-79
2022/06/08 05:13:49;;;;;;;5.38;2.80;;;;;;;18.40;58.99;100281.78;5005937;28;20045;-77
2022/06/08 05:16:17;;;;;;;4.40;2.75;;;;;;;18.44;59.15;100269.00;5004228;28;20141;-79
2022/06/08 05:18:44;;;;;;;7.72;2.95;;;;;;;18.51;59.54;100275.41;5019264;28;20056;-81
2022/06/08 05:21:12;;;;;;;10.98;3.25;;;;;;;18.51;58.72;100283.41;5005261;28;20068;-78
2022/06/08 05:23:40;;;;;;;4.15;2.38;;;;;;;18.52;59.26;100285.09;4992713;28;20053;-79
2022/06/08 05:26:08;;;;;;;4.32;2.53;;;;;;;18.46;59.48;100281.19;5007402;28;20334;-78
2022/06/08 05:28:36;;;;;;;4.47;2.58;;;;;;;18.44;59.53;100277.00;5008284;28;20233;-80
2022/06/08 05:31:04;;;;;;;6.30;2.25;;;;;;;18.40;59.76;100276.44;5008237;28;20044;-80
2022/06/08 05:33:34;;;;;;;4.72;2.22;;;;;;;18.41;60.12;100272.78;5042866;28;20103;-79
2022/06/08 05:36:02;;;;;;;5.22;2.22;;;;;;;18.46;60.24;100264.34;5026748;28;20493;-79
2022/06/08 05:38:30;;;;;;;6.05;2.05;;;;;;;18.54;60.24;100261.78;5008030;28;20049;-81
2022/06/08 05:40:57;;;;;;;6.25;2.20;;;;;;;18.64;60.12;100262.56;5026616;28;20630;-80
2022/06/08 05:43:25;;;;;;;3.97;2.05;;;;;;;18.79;59.70;100265.56;5008766;28;20373;-78
2022/06/08 05:45:52;;;;;;;6.18;2.05;;;;;;;18.85;59.32;100270.28;5025378;28;20148;-78
2022/06/08 05:48:20;;;;;;;3.42;2.00;;;;;;;18.96;59.26;100269.22;5001203;28;20080;-80
2022/06/08 05:50:48;;;;;;;7.97;2.60;;;;;;;19.04;58.87;100271.13;5027085;28;20051;-79
2022/06/08 05:53:16;;;;;;;6.00;2.33;;;;;;;19.15;58.82;100266.38;5012706;28;20051;-80
2022/06/08 05:55:43;;;;;;;7.40;1.85;;;;;;;19.32;58.52;100270.03;5022941;28;20064;-80
2022/06/08 05:58:11;;;;;;;10.05;2.20;;;;;;;19.39;58.45;100278.25;5026965;28;20120;-79
2022/06/08 06:00:40;;;;;;;3.65;2.10;;;;;;;19.43;58.10;100279.59;5043904;28;20373;-81
2022/06/08 06:03:08;;;;;;;5.82;2.40;;;;;;;19.35;57.38;100280.38;5014146;28;20067;-81
2022/06/08 06:05:38;;;;;;;7.10;2.33;;;;;;;19.30;57.76;100285.34;4994033;28;20057;-81
2022/06/08 06:08:07;;;;;;;6.15;2.08;;;;;;;19.34;57.45;100289.38;5030403;28;20056;-81
2022/06/08 06:10:37;;;;;;;5.30;1.95;;;;;;;19.29;56.71;100270.31;5007961;28;20075;-82
2022/06/08 06:13:04;;;;;;;7.63;2.08;;;;;;;19.29;57.00;100280.16;5016986;28;20041;-79
2022/06/08 06:15:32;;;;;;;3.08;2.05;;;;;;;19.31;57.12;100276.34;5022342;28;20140;-81
2022/06/08 06:17:59;;;;;;;3.67;1.75;;;;;;;19.37;57.04;100278.41;5030510;28;20061;-79
2022/06/08 06:20:27;;;;;;;8.27;2.30;;;;;;;19.42;56.85;100272.59;5010279;28;20055;-81
2022/06/08 06:22:54;;;;;;;3.95;1.92;;;;;;;19.52;57.10;100275.16;4995333;28;20064;-79
2022/06/08 06:25:22;;;;;;;4.75;2.10;;;;;;;19.70;56.84;100275.97;4996943;28;20055;-79
2022/06/08 06:27:49;;;;;;;6.60;2.83;;;;;;;19.71;56.17;100278.47;5031227;28;20099;-79
2022/06/08 06:30:17;;;;;;;3.88;2.17;;;;;;;19.72;55.81;100277.50;5030830;28;20064;-80
2022/06/08 06:32:46;;;;;;;5.25;2.55;;;;;;;19.79;55.61;100274.19;5016865;28;20049;-80
2022/06/08 06:35:23;;;;;;;5.13;2.50;;;;;;;19.88;55.75;100278.59;4995190;28;20159;-80
2022/06/08 06:37:51;;;;;;;5.47;2.33;;;;;;;20.18;55.33;100277.22;4992842;28;1158887;-80
2022/06/08 06:40:20;;;;;;;4.22;1.80;;;;;;;20.40;54.62;100273.97;4996481;28;20045;-80
2022/06/08 06:42:48;;;;;;;3.33;1.67;;;;;;;20.53;54.16;100278.03;5032395;28;20053;-79
2022/06/08 06:45:15;;;;;;;4.05;1.85;;;;;;;20.73;53.48;100280.25;5031665;28;20071;-80
2022/06/08 06:47:43;;;;;;;4.70;2.35;;;;;;;20.99;52.95;100271.25;5014653;28;20044;-80
2022/06/08 06:50:14;;;;;;;4.63;2.15;;;;;;;21.03;52.95;100274.41;5015402;28;20491;-81
2022/06/08 06:52:42;;;;;;;8.10;2.05;;;;;;;20.96;52.81;100272.41;5000317;28;20067;-80
2022/06/08 06:55:18;;;;;;;4.93;2.42;;;;;;;20.93;53.04;100269.22;5015359;28;20045;-80
2022/06/08 06:57:46;;;;;;;6.35;1.85;;;;;;;20.99;53.37;100273.94;5003913;28;20076;-81
2022/06/08 07:00:13;;;;;;;7.63;2.47;;;;;;;21.00;53.58;100272.94;5034407;28;20052;-80
2022/06/08 07:02:41;;;;;;;7.15;2.13;;;;;;;21.10;53.38;100265.56;5038510;28;20048;-80
2022/06/08 07:05:21;;;;;;;4.63;1.80;;;;;;;21.22;53.42;100268.75;5036014;28;20044;-80
2022/06/08 07:07:48;;;;;;;2.55;1.75;;;;;;;21.35;53.49;100279.00;5000838;28;20063;-79
2022/06/08 07:10:16;;;;;;;5.68;1.73;;;;;;;21.38;52.99;100265.25;5019163;28;20463;-80
2022/06/08 07:12:44;;;;;;;5.00;1.83;;;;;;;21.41;53.01;100272.97;5017727;28;20078;-81
2022/06/08 07:15:13;;;;;;;3.10;1.33;;;;;;;21.53;53.19;100268.94;5019311;28;20451;-81
2022/06/08 07:17:40;;;;;;;5.53;1.40;;;;;;;21.60;52.66;100269.91;5020356;28;20367;-80
2022/06/08 07:20:10;;;;;;;6.53;1.80;;;;;;;21.71;52.53;100274.09;5024941;28;20055;-81
2022/06/08 07:22:37;;;;;;;5.43;1.80;;;;;;;21.83;52.31;100272.69;5015431;28;20200;-82
2022/06/08 07:25:07;;;;;;;4.25;1.65;;;;;;;21.99;51.41;100271.81;5017469;28;20079;-81
2022/06/08 07:27:35;;;;;;;3.45;1.30;;;;;;;21.98;51.48;100270.16;5015937;28;20501;-79
2022/06/08 07:30:03;;;;;;;6.57;2.13;;;;;;;22.10;51.34;100265.22;5027659;28;20156;-81
2022/06/08 07:32:31;;;;;;;8.50;1.55;;;;;;;22.16;51.18;100262.75;5021787;28;20069;-80
2022/06/08 07:34:58;;;;;;;6.05;2.00;;;;;;;22.37;50.69;100259.44;5015099;28;20342;-79
2022/06/08 07:37:26;;;;;;;4.78;1.60;;;;;;;22.58;50.66;100250.78;5012257;28;20045;-80
2022/06/08 07:39:54;;;;;;;3.40;1.52;;;;;;;22.86;49.59;100259.13;5012593;28;20071;-81
2022/06/08 07:42:21;;;;;;;4.20;1.40;;;;;;;22.71;49.90;100251.03;5029060;28;20400;-79
2022/06/08 07:44:49;;;;;;;1.77;1.30;;;;;;;22.47;50.31;100260.06;5029494;28;20498;-80
2022/06/08 07:47:16;;;;;;;4.55;1.73;;;;;;;22.44;50.64;100260.41;5028952;28;20036;-80
2022/06/08 07:49:49;;;;;;;5.07;1.30;;;;;;;22.44;51.00;100260.41;5013037;28;20041;-80
2022/06/08 07:52:20;;;;;;;3.80;1.35;;;;;;;22.27;50.85;100258.00;4996225;28;20069;-82
2022/06/08 07:54:48;;;;;;;4.72;1.73;;;;;;;21.94;52.21;100263.47;5007657;28;20505;-79
2022/06/08 07:57:25;;;;;;;5.53;1.70;;;;;;;21.96;52.07;100256.91;5013070;28;20484;-79
2022/06/08 07:59:53;;;;;;;4.30;1.83;;;;;;;22.02;52.29;100257.22;5010884;28;20653;-81
2022/06/08 08:02:21;;;;;;;4.88;1.88;;;;;;;21.89;52.11;100263.16;5000172;28;20122;-81
2022/06/08 08:04:49;;;;;;;5.47;2.10;;;;;;;21.92;52.00;100257.44;5012550;28;20063;-79
2022/06/08 08:07:18;;;;;;;5.03;1.52;;;;;;;21.52;52.87;100253.00;5001579;28;20061;-80
2022/06/08 08:09:48;;;;;;;6.00;1.67;;;;;;;21.63;53.01;100250.00;5000919;28;20583;-80
2022/06/08 08:12:16;;;;;;;6.95;1.60;;;;;;;21.68;52.10;100244.94;5016995;28;20055;-81
2022/06/08 08:14:43;;;;;;;4.40;1.38;;;;;;;21.73;52.45;100237.22;5012106;28;20052;-80
2022/06/08 08:17:10;;;;;;;2.00;1.20;;;;;;;21.85;52.59;100243.06;5002940;28;20036;-79
2022/06/08 08:19:39;;;;;;;2.97;1.70;;;;;;;22.17;52.34;100245.63;5013555;28;20183;-80
2022/06/08 08:22:07;;;;;;;2.35;1.10;;;;;;;22.49;51.22;100246.47;5012611;28;20152;-80
2022/06/08 08:24:34;;;;;;;3.28;1.35;;;;;;;22.78;50.66;100240.41;5015372;28;20056;-80
2022/06/08 08:27:01;;;;;;;3.70;1.30;;;;;;;22.96;50.14;100237.44;5016115;28;20098;-81
2022/06/08 08:29:29;;;;;;;5.05;1.52;;;;;;;23.09;49.68;100243.03;5030898;28;20045;-80
2022/06/08 08:32:08;;;;;;;5.72;1.75;;;;;;;22.97;49.67;100221.19;5028965;28;20037;-81
2022/06/08 08:34:37;;;;;;;3.15;1.30;;;;;;;23.25;49.26;100229.47;4993835;28;20048;-80
2022/06/08 08:37:04;;;;;;;2.38;1.23;;;;;;;23.44;48.65;100233.47;5030072;28;20057;-80
2022/06/08 08:39:31;;;;;;;1.63;0.77;;;;;;;23.64;47.04;100241.88;5013525;28;20041;-80
2022/06/08 08:44:57;;;;;;;1.80;1.20;;;;;;;23.62;46.50;100227.75;5026935;28;20045;-81
2022/06/08 08:47:27;;;;;;;9.48;2.00;;;;;;;23.57;47.23;100235.53;5011869;28;20037;-80
2022/06/08 08:49:56;;;;;;;4.80;1.30;;;;;;;23.44;46.88;100224.59;5029734;28;20088;-81
2022/06/08 08:52:31;;;;;;;6.88;1.58;;;;;;;23.40;47.33;100223.28;5034628;28;20068;-83
2022/06/08 08:55:05;;;;;;;;;;;;;;;23.66;46.89;100229.09;5021934;28;20782;-81
2022/06/08 08:57:37;;;;;;;3.53;1.40;;;;;;;23.72;46.88;100214.06;5016573;28;19920;-81
2022/06/08 09:00:27;;;;;;;3.83;1.17;;;;;;;24.09;46.55;100217.66;5022866;28;20638;-81
2022/06/08 09:05:42;;;;;;;4.80;1.27;;;;;;;24.13;44.58;100219.75;5014982;28;20045;-81
2022/06/08 09:08:11;;;;;;;3.60;1.40;;;;;;;24.00;45.87;100215.09;5012943;28;20049;-81
2022/06/08 09:10:39;;;;;;;1.73;1.13;;;;;;;24.14;46.37;100209.88;4996777;28;20084;-81
2022/06/08 09:13:06;;;;;;;4.38;1.70;;;;;;;24.17;45.86;100213.00;5039697;28;20067;-81
2022/06/08 09:15:54;;;;;;;3.03;0.88;;;;;;;24.06;44.87;100213.50;5029911;28;20045;-81
2022/06/08 09:18:36;;;;;;;5.18;1.20;;;;;;;23.81;45.59;100206.75;5013107;28;20045;-81
2022/06/08 09:21:29;;;;;;;3.58;0.93;;;;;;;23.96;45.79;100212.97;5009959;28;20492;-78
2022/06/08 09:23:59;;;;;;;2.83;0.90;;;;;;;24.33;44.92;100209.25;4999073;28;20045;-79
2022/06/08 09:26:34;;;;;;;3.35;1.15;;;;;;;24.10;45.19;100211.28;5028339;28;20067;-79
2022/06/08 09:29:14;;;;;;;1.67;0.95;;;;;;;24.22;45.33;100209.72;5016852;28;20063;-80
2022/06/08 09:31:42;;;;;;;2.03;0.90;;;;;;;24.57;44.83;100196.50;5017900;28;20147;-79
2022/06/08 09:34:34;;;;;;;2.38;1.13;;;;;;;24.69;43.52;100194.97;5028822;22;20314;-53
2022/06/08 09:37:13;;;;;;;3.05;1.00;;;;;;;24.75;43.58;100186.09;5049985;28;20161;-54
2022/06/08 09:39:42;;;;;;;2.38;0.88;;;;;;;25.32;43.27;100182.44;5044292;28;20049;-55
2022/06/08 09:42:54;;;;;;;6.43;1.10;;;;;;;25.68;42.48;100181.41;5028729;28;20049;-54
2022/06/08 09:45:58;;;;;;;2.05;0.90;;;;;;;25.80;41.65;100189.78;5003235;28;20076;-51
2022/06/08 09:51:26;;;;;;;3.58;1.38;;;;;;;26.15;39.63;100168.97;5035227;28;20224;-53
2022/06/08 09:54:00;;;;;;;2.38;1.00;;;;;;;25.93;40.45;100173.66;5021236;28;20072;-51
2022/06/08 09:56:54;;;;;;;1.27;0.80;;;;;;;25.43;40.81;100175.66;5031957;28;20051;-54
2022/06/08 09:59:30;;;;;;;3.17;0.75;;;;;;;25.24;40.75;100159.19;5032028;28;20060;-50
2022/06/08 10:02:19;;;;;;;3.35;1.13;;;;;;;25.23;41.08;100156.69;5029329;28;20073;-53
2022/06/08 10:05:04;;;;;;;2.42;0.93;;;;;;;24.91;41.51;100155.41;5027878;28;20048;-51
2022/06/08 10:07:44;;;;;;;1.20;0.75;;;;;;;24.70;42.67;100153.56;5033089;28;20041;-55
2022/06/08 10:10:24;;;;;;;7.43;1.10;;;;;;;24.62;43.40;100140.22;5037019;28;20072;-51
2022/06/08 10:12:58;;;;;;;1.83;0.77;;;;;;;24.42;42.81;100142.75;5025387;28;20060;-54
2022/06/08 10:15:31;;;;;;;3.70;0.90;;;;;;;23.99;44.13;100156.94;5044938;28;20053;-52
2022/06/08 10:18:05;;;;;;;3.28;1.33;;;;;;;24.08;44.69;100135.31;5053393;28;20075;-55
2022/06/08 10:20:38;;;;;;;4.10;1.23;;;;;;;24.15;44.71;100138.91;5041523;28;20057;-54
2022/06/08 10:23:27;;;;;;;6.97;1.23;;;;;;;24.07;45.22;100139.84;5042958;28;20060;-57
2022/06/08 10:26:00;;;;;;;2.35;1.30;;;;;;;23.78;45.47;100142.63;5026555;28;20045;-53
2022/06/08 10:28:53;;;;;;;1.75;1.17;;;;;;;23.85;45.35;100141.66;5030271;28;20045;-52
2022/06/08 10:31:39;;;;;;;5.63;1.48;;;;;;;23.93;45.23;100144.25;5043416;28;20081;-57
2022/06/08 10:34:19;;;;;;;3.90;1.17;;;;;;;24.01;45.08;100137.94;5045351;28;20661;-56
2022/06/08 10:36:54;;;;;;;1.95;0.75;;;;;;;24.12;43.88;100136.59;5043540;28;20067;-55
2022/06/08 10:39:22;;;;;;;1.67;1.10;;;;;;;24.14;44.64;100140.78;5047799;28;20048;-51
2022/06/08 10:44:59;;;;;;;3.30;1.00;;;;;;;23.73;44.90;100132.41;5044461;28;20427;-54
2022/06/08 10:47:28;;;;;;;2.92;1.23;;;;;;;23.59;45.55;100135.91;5026117;28;20484;-54
2022/06/08 10:50:01;;;;;;;3.85;1.23;;;;;;;23.52;45.49;100135.84;5043724;28;20079;-55
2022/06/08 10:52:49;;;;;;;4.22;1.23;;;;;;;23.60;45.83;100137.63;5041479;28;20128;-54
2022/06/08 10:55:17;;;;;;;3.25;1.20;;;;;;;23.54;45.86;100128.44;5043635;28;20045;-53
2022/06/08 10:57:49;;;;;;;1.58;1.10;;;;;;;23.84;45.35;100134.63;5046513;28;20072;-57
2022/06/08 11:00:19;;;;;;;2.50;0.80;;;;;;;23.93;44.55;100132.66;5044463;28;20072;-52
2022/06/08 11:02:58;;;;;;;4.60;1.08;;;;;;;23.78;45.00;100118.44;5033531;28;20057;-58
2022/06/08 11:05:36;;;;;;;1.40;0.98;;;;;;;23.96;45.04;100110.78;5043948;28;20509;-55
2022/06/08 11:08:06;;;;;;;1.98;1.02;;;;;;;24.08;45.09;100106.56;5044979;28;20052;-53
2022/06/08 11:10:57;;;;;;;3.28;1.10;;;;;;;23.73;45.17;100119.84;5040032;28;20049;-54
2022/06/08 11:13:38;;;;;;;3.08;1.17;;;;;;;23.52;45.67;100124.28;5048806;28;20411;-52
2022/06/08 11:16:16;;;;;;;2.67;1.35;;;;;;;23.43;46.21;100110.09;5034671;28;20410;-54
2022/06/08 11:18:58;;;;;;;3.72;1.10;;;;;;;23.41;46.25;100112.13;5029446;28;20059;-54
2022/06/08 11:21:39;;;;;;;4.22;1.13;;;;;;;23.45;46.11;100113.41;5027653;28;20052;-54
2022/06/08 11:24:19;;;;;;;2.53;1.30;;;;;;;23.64;45.47;100112.91;5039915;28;20405;-53
2022/06/08 11:26:48;;;;;;;1.98;1.00;;;;;;;23.82;45.18;100109.81;5026799;28;20132;-52
2022/06/08 11:29:16;;;;;;;2.80;1.10;;;;;;;23.91;45.30;100114.06;5031745;28;20071;-55
2022/06/08 11:31:43;;;;;;;4.55;1.75;;;;;;;23.97;45.10;100104.38;5043849;28;20366;-54
2022/06/08 11:34:18;;;;;;;2.38;0.90;;;;;;;24.06;44.62;100095.19;5049597;28;20448;-54
2022/06/08 11:37:21;;;;;;;6.47;1.10;;;;;;;24.29;44.23;100096.84;5041724;28;20600;-53
2022/06/08 11:40:10;;;;;;;5.47;0.88;;;;;;;24.53;44.34;100101.84;5017864;28;20509;-53
2022/06/08 11:43:06;;;;;;;2.85;0.88;;;;;;;24.60;43.84;100094.69;5041700;28;20045;-52
2022/06/08 11:45:44;;;;;;;5.32;1.17;;;;;;;24.78;43.87;100094.19;5042257;28;20052;-55
2022/06/08 11:48:18;;;;;;;3.25;0.85;;;;;;;24.82;43.94;100095.47;5036753;28;20052;-55
2022/06/08 11:50:56;;;;;;;1.60;0.90;;;;;;;24.76;43.77;100080.91;5044900;28;20063;-54
2022/06/08 11:53:26;;;;;;;2.65;0.95;;;;;;;25.05;43.67;100083.63;5047361;28;20785;-54
2022/06/08 11:56:30;;;;;;;1.60;0.90;;;;;;;25.31;42.92;100082.94;5040584;28;20052;-56
2022/06/08 11:59:02;;;;;;;1.10;0.82;;;;;;;25.32;41.96;100079.25;5047589;28;20063;-58
2022/06/08 12:01:38;;;;;;;2.80;1.00;;;;;;;25.19;42.07;100080.00;5041764;28;20053;-57